createdAt,value
2018-05-31T00:00:40.317Z,21.97
2018-05-31T00:03:07.827Z,22.14
2018-05-31T00:05:35.339Z,22.05
2018-05-31T00:08:02.956Z,22.13
2018-05-31T00:10:30.462Z,22.01
2018-05-31T00:12:58.022Z,22.03
2018-05-31T00:15:25.496Z,21.97
2018-05-31T00:17:53.039Z,21.94
2018-05-31T00:20:20.544Z,22.07
2018-05-31T00:22:48.050Z,21.82
2018-05-31T00:25:15.617Z,21.85
2018-05-31T00:27:43.090Z,22.10
2018-05-31T00:30:10.618Z,22.03
2018-05-31T00:32:38.134Z,22.00
2018-05-31T00:35:05.649Z,21.74
2018-05-31T00:37:33.197Z,21.48
2018-05-31T00:40:00.708Z,21.51
2018-05-31T00:42:28.219Z,21.47
2018-05-31T00:44:56.064Z,21.59
2018-05-31T00:47:23.549Z,21.58
2018-05-31T00:49:51.039Z,21.46
2018-05-31T00:52:18.615Z,21.41
2018-05-31T00:54:46.115Z,21.42
2018-05-31T00:57:13.634Z,21.41
2018-05-31T00:59:41.148Z,21.44
2018-05-31T01:02:08.727Z,21.58
2018-05-31T01:04:36.252Z,21.42
2018-05-31T01:07:03.757Z,21.60
2018-05-31T01:09:31.263Z,21.38
2018-05-31T01:11:58.849Z,21.43
2018-05-31T01:14:26.353Z,21.19
2018-05-31T01:16:53.833Z,21.38
2018-05-31T01:19:21.335Z,21.37
2018-05-31T01:21:48.854Z,21.30
2018-05-31T01:24:16.385Z,21.33
2018-05-31T01:26:43.895Z,21.34
2018-05-31T01:29:11.390Z,21.40
2018-05-31T01:31:38.941Z,21.24
2018-05-31T01:34:06.510Z,21.24
2018-05-31T01:36:34.013Z,21.03
2018-05-31T01:39:01.496Z,21.06
2018-05-31T01:41:29.040Z,21.03
2018-05-31T01:43:56.541Z,20.80
2018-05-31T01:46:24.054Z,21.05
2018-05-31T01:48:51.564Z,20.79
2018-05-31T01:51:19.067Z,20.77
2018-05-31T01:53:46.602Z,20.62
2018-05-31T01:56:14.100Z,20.61
2018-05-31T01:58:41.635Z,20.66
2018-05-31T02:01:09.176Z,20.74
2018-05-31T02:03:36.667Z,20.92
2018-05-31T02:06:04.165Z,20.62
2018-05-31T02:08:31.674Z,20.64
2018-05-31T02:10:59.235Z,20.64
2018-05-31T02:13:26.743Z,20.86
2018-05-31T02:15:54.271Z,20.69
2018-05-31T02:18:21.776Z,20.78
2018-05-31T02:20:49.287Z,20.77
2018-05-31T02:23:16.813Z,20.58
2018-05-31T02:25:44.306Z,20.59
2018-05-31T02:28:11.837Z,20.53
2018-05-31T02:30:39.319Z,20.65
2018-05-31T02:33:06.849Z,20.54
2018-05-31T02:35:34.328Z,20.23
2018-05-31T02:38:02.458Z,20.25
2018-05-31T02:40:29.979Z,20.34
2018-05-31T02:42:57.508Z,20.07
2018-05-31T02:45:25.048Z,20.14
2018-05-31T02:47:52.539Z,20.38
2018-05-31T02:50:20.025Z,20.26
2018-05-31T02:52:47.541Z,20.29
2018-05-31T02:55:15.103Z,20.23
2018-05-31T02:57:42.614Z,20.24
2018-05-31T03:00:10.255Z,20.00
2018-05-31T03:02:37.786Z,20.07
2018-05-31T03:05:05.319Z,20.16
2018-05-31T03:07:32.800Z,20.19
2018-05-31T03:10:00.359Z,20.37
2018-05-31T03:12:27.876Z,20.39
2018-05-31T03:14:55.398Z,20.46
2018-05-31T03:17:22.871Z,20.36
2018-05-31T03:19:50.381Z,20.27
2018-05-31T03:22:17.944Z,20.43
2018-05-31T03:24:45.492Z,20.44
2018-05-31T03:27:12.993Z,20.23
2018-05-31T03:29:40.556Z,20.25
2018-05-31T03:32:08.088Z,20.20
2018-05-31T03:34:36.620Z,20.06
2018-05-31T03:37:10.885Z,20.10
2018-05-31T03:39:40.434Z,20.17
2018-05-31T03:42:11.596Z,20.21
2018-05-31T03:44:41.468Z,20.33
2018-05-31T03:47:09.068Z,20.35
2018-05-31T03:49:43.027Z,20.44
2018-05-31T03:52:11.672Z,20.52
2018-05-31T03:54:41.519Z,20.36
2018-05-31T03:57:15.606Z,20.55
2018-05-31T03:59:45.267Z,22.56
2018-05-31T04:02:19.831Z,23.46
2018-05-31T04:04:48.669Z,23.95
2018-05-31T04:07:19.014Z,24.55
2018-05-31T04:09:49.939Z,24.44
2018-05-31T04:12:21.257Z,25.03
2018-05-31T04:14:50.041Z,25.54
2018-05-31T04:17:22.127Z,25.95
2018-05-31T04:19:52.349Z,25.22
2018-05-31T04:22:22.878Z,23.80
2018-05-31T04:24:52.069Z,25.31
2018-05-31T04:27:23.667Z,24.16
2018-05-31T04:29:51.276Z,23.73
2018-05-31T04:32:19.114Z,24.63
2018-05-31T04:34:47.701Z,23.75
2018-05-31T04:37:15.950Z,22.86
2018-05-31T04:39:45.864Z,22.14
2018-05-31T04:42:13.846Z,21.80
2018-05-31T04:44:41.404Z,21.58
2018-05-31T04:47:08.887Z,21.67
2018-05-31T04:49:36.389Z,21.47
2018-05-31T04:52:03.920Z,21.45
2018-05-31T04:54:31.458Z,21.51
2018-05-31T04:56:59.031Z,21.33
2018-05-31T04:59:26.581Z,21.24
2018-05-31T05:01:54.114Z,21.41
2018-05-31T05:04:21.601Z,21.14
2018-05-31T05:06:49.113Z,21.23
2018-05-31T05:09:16.651Z,21.34
2018-05-31T05:11:44.288Z,21.22
2018-05-31T05:14:11.791Z,21.36
2018-05-31T05:16:39.362Z,21.37
2018-05-31T05:19:06.899Z,21.26
2018-05-31T05:21:34.416Z,21.27
2018-05-31T05:24:01.968Z,21.33
2018-05-31T05:26:29.482Z,21.38
2018-05-31T05:28:57.021Z,21.43
2018-05-31T05:31:24.607Z,21.35
2018-05-31T05:33:52.145Z,21.30
2018-05-31T05:36:19.680Z,21.35
2018-05-31T05:38:47.201Z,21.47
2018-05-31T05:41:14.780Z,21.50
2018-05-31T05:43:42.315Z,21.61
2018-05-31T05:46:09.845Z,21.66
2018-05-31T05:48:37.510Z,21.67
2018-05-31T05:51:05.001Z,21.58
2018-05-31T05:53:32.540Z,21.67
2018-05-31T05:56:00.075Z,21.58
2018-05-31T05:58:27.604Z,21.72
2018-05-31T06:00:55.106Z,21.75
2018-05-31T06:03:22.617Z,21.70
2018-05-31T06:05:50.128Z,21.80
2018-05-31T06:08:17.951Z,21.87
2018-05-31T06:10:45.500Z,21.91
2018-05-31T06:13:13.001Z,21.88
2018-05-31T06:15:40.532Z,22.00
2018-05-31T06:18:08.018Z,22.07
2018-05-31T06:20:35.551Z,22.03
2018-05-31T06:23:03.067Z,21.97
2018-05-31T06:25:30.583Z,22.03
2018-05-31T06:27:58.103Z,22.11
2018-05-31T06:30:25.660Z,22.19
2018-05-31T06:32:53.283Z,22.18
2018-05-31T06:35:20.777Z,22.17
2018-05-31T06:37:48.274Z,22.30
2018-05-31T06:40:15.823Z,22.39
2018-05-31T06:42:43.420Z,22.38
2018-05-31T06:45:10.922Z,22.35
2018-05-31T06:47:38.439Z,22.41
2018-05-31T06:50:05.918Z,22.46
2018-05-31T06:52:33.487Z,22.50
2018-05-31T06:55:00.986Z,22.49
2018-05-31T06:57:28.501Z,22.59
2018-05-31T06:59:55.989Z,22.54
2018-05-31T07:02:23.589Z,22.50
2018-05-31T07:04:51.099Z,22.62
2018-05-31T07:07:18.578Z,22.65
2018-05-31T07:09:46.084Z,22.74
2018-05-31T07:12:13.603Z,22.80
2018-05-31T07:14:41.143Z,22.86
2018-05-31T07:17:08.642Z,22.80
2018-05-31T07:19:36.176Z,22.85
2018-05-31T07:22:03.668Z,22.78
2018-05-31T07:24:31.210Z,22.83
2018-05-31T07:26:58.697Z,22.91
2018-05-31T07:29:26.213Z,23.00
2018-05-31T07:31:53.710Z,22.95
2018-05-31T07:34:21.194Z,23.03
2018-05-31T07:36:48.697Z,23.06
2018-05-31T07:39:16.169Z,23.23
2018-05-31T07:41:43.694Z,23.05
2018-05-31T07:44:11.225Z,23.22
2018-05-31T07:46:38.726Z,23.19
2018-05-31T07:49:06.298Z,23.23
2018-05-31T07:51:33.818Z,23.51
2018-05-31T07:54:01.297Z,23.64
2018-05-31T07:56:28.835Z,23.64
2018-05-31T07:58:56.424Z,23.43
2018-05-31T08:01:23.897Z,23.61
2018-05-31T08:03:51.419Z,23.56
2018-05-31T08:06:18.914Z,23.56
2018-05-31T08:08:46.405Z,23.98
2018-05-31T08:11:13.935Z,23.98
2018-05-31T08:13:41.433Z,23.86
2018-05-31T08:16:08.967Z,23.87
2018-05-31T08:18:36.453Z,23.97
2018-05-31T08:21:03.987Z,24.36
2018-05-31T08:23:31.508Z,24.23
2018-05-31T08:25:59.066Z,24.26
2018-05-31T08:28:26.542Z,24.19
2018-05-31T08:30:54.030Z,24.13
2018-05-31T08:33:21.549Z,24.29
2018-05-31T08:35:49.113Z,24.30
2018-05-31T08:38:16.807Z,24.45
2018-05-31T08:40:44.316Z,24.44
2018-05-31T08:43:11.804Z,24.41
2018-05-31T08:45:39.304Z,24.65
2018-05-31T08:48:06.918Z,24.62
2018-05-31T08:50:34.421Z,24.49
2018-05-31T08:53:01.898Z,24.49
2018-05-31T08:55:29.413Z,24.80
2018-05-31T08:57:56.925Z,24.78
2018-05-31T09:00:24.437Z,24.80
2018-05-31T09:02:51.911Z,25.00
2018-05-31T09:05:19.446Z,25.13
2018-05-31T09:07:46.965Z,25.09
2018-05-31T09:10:14.461Z,25.14
2018-05-31T09:12:41.987Z,25.00
2018-05-31T09:15:09.516Z,25.27
2018-05-31T09:17:37.089Z,25.18
2018-05-31T09:20:04.556Z,25.37
2018-05-31T09:22:32.082Z,25.26
2018-05-31T09:24:59.641Z,25.45
2018-05-31T09:27:27.221Z,25.30
2018-05-31T09:29:54.753Z,25.68
2018-05-31T09:32:22.250Z,25.82
2018-05-31T09:34:49.764Z,25.83
2018-05-31T09:37:17.311Z,25.85
2018-05-31T09:39:44.833Z,25.80
2018-05-31T09:42:12.338Z,25.76
2018-05-31T09:44:39.829Z,26.01
2018-05-31T09:47:07.345Z,25.91
2018-05-31T09:49:34.831Z,25.69
2018-05-31T09:52:02.774Z,26.02
2018-05-31T09:54:30.276Z,25.91
2018-05-31T09:56:57.746Z,26.01
2018-05-31T09:59:25.309Z,26.03
2018-05-31T10:01:52.904Z,26.16
2018-05-31T10:04:20.397Z,26.10
2018-05-31T10:06:47.897Z,26.18
2018-05-31T10:09:15.430Z,26.40
2018-05-31T10:11:42.927Z,26.17
2018-05-31T10:14:10.416Z,26.32
2018-05-31T10:16:37.931Z,26.58
2018-05-31T10:19:05.437Z,26.34
2018-05-31T10:21:32.973Z,26.66
2018-05-31T10:24:00.476Z,26.75
2018-05-31T10:26:27.972Z,26.81
2018-05-31T10:28:55.448Z,26.72
2018-05-31T10:31:22.988Z,26.72
2018-05-31T10:33:50.463Z,26.67
2018-05-31T10:36:17.978Z,26.82
2018-05-31T10:38:45.522Z,26.77
2018-05-31T10:41:13.073Z,27.01
2018-05-31T10:43:40.608Z,26.95
2018-05-31T10:46:08.085Z,27.03
2018-05-31T10:48:35.608Z,26.84
2018-05-31T10:51:03.185Z,27.29
2018-05-31T10:53:30.708Z,27.52
2018-05-31T10:55:58.189Z,27.54
2018-05-31T10:58:25.672Z,27.29
2018-05-31T11:00:53.196Z,27.32
2018-05-31T11:03:20.690Z,27.12
2018-05-31T11:05:48.191Z,27.47
2018-05-31T11:08:15.674Z,27.63
2018-05-31T11:10:43.265Z,27.55
2018-05-31T11:13:10.763Z,27.68
2018-05-31T11:15:38.233Z,27.56
2018-05-31T11:18:05.842Z,27.58
2018-05-31T11:20:33.447Z,27.61
2018-05-31T11:23:00.927Z,27.65
2018-05-31T11:25:28.484Z,27.62
2018-05-31T11:27:56.148Z,27.64
2018-05-31T11:30:23.626Z,27.73
2018-05-31T11:32:51.121Z,28.08
2018-05-31T11:35:18.642Z,27.81
2018-05-31T11:37:46.145Z,27.79
2018-05-31T11:40:13.699Z,27.93
2018-05-31T11:42:41.190Z,28.49
2018-05-31T11:45:08.713Z,28.41
2018-05-31T11:47:36.191Z,28.12
2018-05-31T11:50:03.760Z,28.24
2018-05-31T11:52:31.232Z,28.37
2018-05-31T11:54:58.741Z,28.41
2018-05-31T11:57:26.234Z,28.35
2018-05-31T11:59:53.774Z,28.36
2018-05-31T12:02:21.304Z,28.69
2018-05-31T12:04:48.812Z,28.65
2018-05-31T12:07:16.352Z,28.53
2018-05-31T12:09:43.948Z,28.50
2018-05-31T12:12:11.453Z,28.68
2018-05-31T12:14:39.040Z,29.03
2018-05-31T12:17:06.540Z,28.95
2018-05-31T12:19:34.081Z,29.10
2018-05-31T12:22:01.604Z,29.18
2018-05-31T12:24:29.121Z,29.00
2018-05-31T12:26:56.646Z,28.93
2018-05-31T12:29:24.192Z,28.98
2018-05-31T12:31:51.751Z,29.31
2018-05-31T12:34:19.341Z,29.32
2018-05-31T12:36:46.826Z,29.22
2018-05-31T12:39:14.333Z,29.24
2018-05-31T12:41:41.835Z,28.89
2018-05-31T12:44:09.371Z,28.90
2018-05-31T12:46:36.868Z,28.68
2018-05-31T12:49:04.354Z,29.00
2018-05-31T12:51:32.190Z,29.27
2018-05-31T12:53:59.687Z,29.34
2018-05-31T12:56:27.179Z,29.43
2018-05-31T12:58:54.802Z,29.47
2018-05-31T13:01:22.370Z,29.65
2018-05-31T13:03:49.913Z,29.57
2018-05-31T13:06:17.406Z,29.62
2018-05-31T13:08:44.988Z,29.64
2018-05-31T13:11:12.517Z,29.67
2018-05-31T13:13:40.024Z,29.72
2018-05-31T13:16:07.585Z,29.85
2018-05-31T13:18:35.076Z,29.91
2018-05-31T13:21:02.596Z,29.98
2018-05-31T13:23:30.090Z,30.06
2018-05-31T13:25:57.639Z,30.17
2018-05-31T13:28:25.450Z,30.21
2018-05-31T13:30:52.967Z,30.01
2018-05-31T13:33:20.504Z,30.37
2018-05-31T13:35:48.035Z,30.27
2018-05-31T13:38:15.525Z,30.21
2018-05-31T13:40:43.023Z,30.33
2018-05-31T13:43:10.625Z,30.43
2018-05-31T13:45:38.162Z,30.40
2018-05-31T13:48:05.636Z,30.67
2018-05-31T13:50:33.128Z,30.57
2018-05-31T13:53:00.681Z,30.58
2018-05-31T13:55:28.204Z,30.64
2018-05-31T13:57:55.688Z,30.73
2018-05-31T14:00:23.213Z,30.54
2018-05-31T14:02:50.810Z,30.74
2018-05-31T14:05:18.324Z,30.61
2018-05-31T14:07:45.829Z,30.76
2018-05-31T14:10:13.359Z,30.72
2018-05-31T14:12:41.048Z,31.07
2018-05-31T14:15:08.539Z,30.90
2018-05-31T14:17:36.522Z,30.73
2018-05-31T14:20:04.020Z,30.82
2018-05-31T14:22:31.532Z,31.02
2018-05-31T14:24:59.207Z,31.16
2018-05-31T14:27:26.766Z,31.18
2018-05-31T14:29:54.263Z,31.50
2018-05-31T14:32:21.819Z,31.48
2018-05-31T14:34:49.324Z,31.41
2018-05-31T14:37:16.846Z,31.40
2018-05-31T14:39:44.361Z,31.29
2018-05-31T14:42:11.857Z,31.42
2018-05-31T14:44:39.381Z,31.44
2018-05-31T14:47:07.673Z,31.26
2018-05-31T14:49:35.198Z,31.46
2018-05-31T14:52:02.675Z,31.21
2018-05-31T14:54:30.191Z,31.09
2018-05-31T14:56:57.669Z,31.14
2018-05-31T14:59:25.179Z,31.24
2018-05-31T15:01:53.301Z,31.31
2018-05-31T15:04:20.888Z,31.54
2018-05-31T15:06:48.488Z,31.45
2018-05-31T15:09:16.020Z,31.19
2018-05-31T15:11:43.624Z,31.24
2018-05-31T15:14:13.820Z,31.25
2018-05-31T15:16:41.558Z,31.29
2018-05-31T15:19:09.016Z,31.27
2018-05-31T15:21:36.508Z,31.53
2018-05-31T15:24:04.056Z,31.52
2018-05-31T15:26:31.571Z,31.55
2018-05-31T15:28:59.111Z,31.67
2018-05-31T15:31:26.598Z,31.56
2018-05-31T15:33:56.375Z,31.58
2018-05-31T15:36:23.878Z,31.51
2018-05-31T15:38:51.360Z,31.59
2018-05-31T15:41:21.589Z,31.61
2018-05-31T15:46:32.269Z,31.61
2018-05-31T15:48:59.789Z,31.76
2018-05-31T15:51:30.181Z,31.88
2018-05-31T15:54:00.631Z,31.86
2018-05-31T15:56:28.155Z,31.90
2018-05-31T15:58:55.699Z,31.80
2018-05-31T16:01:23.259Z,31.49
2018-05-31T16:03:50.761Z,31.32
2018-05-31T16:06:18.249Z,31.42
2018-05-31T16:08:45.804Z,31.33
2018-05-31T16:11:13.283Z,31.32
2018-05-31T16:13:40.811Z,31.40
2018-05-31T16:16:08.344Z,31.27
2018-05-31T16:18:35.851Z,31.17
2018-05-31T16:21:03.332Z,30.84
2018-05-31T16:23:30.877Z,30.81
2018-05-31T16:25:58.356Z,30.69
2018-05-31T16:28:25.944Z,30.59
2018-05-31T16:30:53.534Z,30.72
2018-05-31T16:33:21.284Z,30.60
2018-05-31T16:35:48.811Z,30.51
2018-05-31T16:38:16.299Z,30.48
2018-05-31T16:40:43.812Z,30.51
2018-05-31T16:43:11.403Z,30.67
2018-05-31T16:45:38.912Z,30.86
2018-05-31T16:48:06.402Z,30.93
2018-05-31T16:50:33.936Z,30.79
2018-05-31T16:53:01.452Z,30.61
2018-05-31T16:55:29.557Z,30.48
2018-05-31T16:57:57.086Z,30.56
2018-05-31T17:00:24.876Z,30.57
2018-05-31T17:02:52.389Z,30.57
2018-05-31T17:05:19.863Z,30.50
2018-05-31T17:07:47.365Z,30.59
2018-05-31T17:10:14.864Z,30.59
2018-05-31T17:12:42.476Z,30.83
2018-05-31T17:15:10.007Z,30.85
2018-05-31T17:17:37.625Z,30.78
2018-05-31T17:20:05.371Z,30.71
2018-05-31T17:22:33.394Z,30.74
2018-05-31T17:25:01.105Z,30.69
2018-05-31T17:27:28.661Z,30.84
2018-05-31T17:29:56.199Z,30.84
2018-05-31T17:32:23.758Z,30.76
2018-05-31T17:34:52.628Z,30.71
2018-05-31T17:37:20.148Z,30.58
2018-05-31T17:39:47.624Z,30.44
2018-05-31T17:42:15.138Z,30.42
2018-05-31T17:44:42.741Z,30.34
2018-05-31T17:47:10.252Z,30.31
2018-05-31T17:49:37.728Z,30.36
2018-05-31T17:52:05.249Z,30.35
2018-05-31T17:54:32.825Z,30.35
2018-05-31T17:57:00.320Z,30.32
2018-05-31T18:02:11.920Z,29.98
2018-05-31T18:04:39.439Z,29.96
2018-05-31T18:07:06.939Z,30.18
2018-05-31T18:09:34.461Z,30.11
2018-05-31T18:12:01.938Z,29.92
2018-05-31T18:14:29.541Z,30.15
2018-05-31T18:16:57.115Z,29.81
2018-05-31T18:19:24.584Z,29.92
2018-05-31T18:21:52.091Z,29.68
2018-05-31T18:24:19.619Z,29.72
2018-05-31T18:26:47.135Z,29.90
2018-05-31T18:29:14.608Z,29.91
2018-05-31T18:31:42.120Z,29.77
2018-05-31T18:34:09.590Z,29.64
2018-05-31T18:36:37.096Z,29.60
2018-05-31T18:39:05.223Z,29.65
2018-05-31T18:41:32.713Z,29.74
2018-05-31T18:44:00.199Z,29.63
2018-05-31T18:46:27.670Z,29.65
2018-05-31T18:48:55.188Z,29.56
2018-05-31T18:51:22.671Z,29.59
2018-05-31T18:53:50.185Z,29.52
2018-05-31T18:56:17.653Z,29.59
2018-05-31T18:58:45.196Z,29.53
2018-05-31T19:01:12.684Z,29.39
2018-05-31T19:03:40.148Z,29.46
2018-05-31T19:06:07.634Z,29.29
2018-05-31T19:08:35.232Z,29.18
2018-05-31T19:11:02.706Z,28.94
2018-05-31T19:13:35.810Z,28.96
2018-05-31T19:16:03.284Z,28.83
2018-05-31T19:18:36.203Z,28.73
2018-05-31T19:21:03.676Z,28.97
2018-05-31T19:23:31.166Z,28.79
2018-05-31T19:25:58.678Z,28.31
2018-05-31T19:28:26.159Z,28.68
2018-05-31T19:30:59.346Z,28.27
2018-05-31T19:33:26.831Z,28.37
2018-05-31T19:36:00.001Z,28.61
2018-05-31T19:38:27.504Z,28.54
2018-05-31T19:40:54.976Z,28.57
2018-05-31T19:43:28.125Z,28.45
2018-05-31T19:45:55.611Z,28.55
2018-05-31T19:48:23.131Z,28.53
2018-05-31T19:50:50.618Z,28.33
2018-05-31T19:53:23.594Z,28.29
2018-05-31T19:55:51.134Z,28.40
2018-05-31T19:58:24.149Z,28.32
2018-05-31T20:00:57.338Z,28.30
2018-05-31T20:03:36.978Z,28.33
2018-05-31T20:06:04.477Z,28.32
2018-05-31T20:08:32.004Z,28.29
2018-05-31T20:10:59.572Z,28.22
2018-05-31T20:13:27.046Z,28.19
2018-05-31T20:15:54.529Z,27.99
2018-05-31T20:18:22.019Z,27.87
2018-05-31T20:20:49.600Z,27.86
2018-05-31T20:23:17.084Z,27.94
2018-05-31T20:25:44.607Z,27.63
2018-05-31T20:28:12.162Z,27.93
2018-05-31T20:30:39.743Z,27.59
2018-05-31T20:33:07.202Z,27.52
2018-05-31T20:35:34.701Z,27.45
2018-05-31T20:38:02.215Z,27.50
2018-05-31T20:40:29.708Z,27.45
2018-05-31T20:42:57.233Z,27.38
2018-05-31T20:45:24.708Z,27.25
2018-05-31T20:47:52.461Z,27.20
2018-05-31T20:50:19.991Z,27.37
2018-05-31T20:52:47.444Z,27.19
2018-05-31T20:55:14.953Z,27.19
2018-05-31T20:57:42.472Z,27.08
2018-05-31T21:00:10.035Z,27.20
2018-05-31T21:02:37.525Z,27.08
2018-05-31T21:05:05.041Z,26.99
2018-05-31T21:07:32.525Z,26.97
2018-05-31T21:10:00.071Z,27.00
2018-05-31T21:12:27.578Z,26.86
2018-05-31T21:14:55.096Z,27.00
2018-05-31T21:17:22.686Z,26.80
2018-05-31T21:19:50.180Z,26.79
2018-05-31T21:22:17.645Z,26.70
2018-05-31T21:24:45.156Z,26.76
2018-05-31T21:27:12.641Z,26.60
2018-05-31T21:29:40.133Z,26.78
2018-05-31T21:32:07.648Z,26.56
2018-05-31T21:34:35.154Z,26.33
2018-05-31T21:37:02.780Z,26.52
2018-05-31T21:39:30.269Z,26.38
2018-05-31T21:41:57.784Z,26.20
2018-05-31T21:44:25.249Z,26.42
2018-05-31T21:46:52.918Z,26.00
2018-05-31T21:49:20.388Z,26.16
2018-05-31T21:51:47.909Z,25.98
2018-05-31T21:54:15.411Z,26.06
2018-05-31T21:56:42.913Z,25.82
2018-05-31T21:59:10.417Z,26.04
2018-05-31T22:01:37.893Z,25.99
2018-05-31T22:04:05.425Z,25.86
2018-05-31T22:06:33.007Z,25.73
2018-05-31T22:09:00.464Z,25.79
2018-05-31T22:11:28.000Z,25.73
2018-05-31T22:13:55.467Z,25.74
2018-05-31T22:16:23.009Z,25.83
2018-05-31T22:18:50.551Z,25.88
2018-05-31T22:21:18.051Z,25.60
2018-05-31T22:23:45.624Z,25.64
2018-05-31T22:26:13.162Z,25.78
2018-05-31T22:28:40.645Z,25.52
2018-05-31T22:31:08.125Z,25.49
2018-05-31T22:33:35.697Z,25.38
2018-05-31T22:36:03.249Z,25.10
2018-05-31T22:38:30.767Z,25.30
2018-05-31T22:40:58.270Z,25.51
2018-05-31T22:43:25.753Z,25.13
2018-05-31T22:45:54.069Z,25.25
2018-05-31T22:48:21.539Z,25.14
2018-05-31T22:50:49.039Z,25.17
2018-05-31T22:53:16.507Z,25.13
2018-05-31T22:55:43.995Z,25.24
2018-05-31T22:58:11.506Z,25.10
2018-05-31T23:00:39.019Z,24.98
2018-05-31T23:03:06.484Z,25.20
2018-05-31T23:05:34.003Z,25.29
2018-05-31T23:08:01.612Z,25.19
2018-05-31T23:10:29.088Z,25.24
2018-05-31T23:12:56.601Z,25.31
2018-05-31T23:15:24.088Z,25.27
2018-05-31T23:17:51.607Z,25.35
2018-05-31T23:20:19.082Z,24.92
2018-05-31T23:22:46.583Z,25.33
2018-05-31T23:25:14.075Z,25.03
2018-05-31T23:27:41.596Z,24.98
2018-05-31T23:30:09.120Z,25.04
2018-05-31T23:32:36.651Z,25.14
2018-05-31T23:35:04.169Z,25.04
2018-05-31T23:37:31.639Z,24.99
2018-05-31T23:39:59.149Z,24.92
2018-05-31T23:42:26.637Z,24.74
2018-05-31T23:44:54.148Z,24.64
2018-05-31T23:47:21.629Z,24.82
2018-05-31T23:49:49.141Z,24.71
2018-05-31T23:52:16.646Z,24.76
2018-05-31T23:54:44.112Z,24.78
2018-05-31T23:57:11.658Z,24.73
2018-05-31T23:59:39.188Z,24.69
